createdAt,value
2017-09-18T00:01:20.869Z,6.23
2017-09-18T00:03:48.325Z,4.43
2017-09-18T00:06:15.890Z,4.80
2017-09-18T00:08:43.344Z,7.80
2017-09-18T00:11:10.884Z,3.87
2017-09-18T00:13:38.449Z,5.80
2017-09-18T00:16:05.913Z,5.93
2017-09-18T00:18:33.375Z,9.03
2017-09-18T00:21:00.842Z,3.97
2017-09-18T00:23:29.103Z,5.10
2017-09-18T00:25:56.573Z,4.50
2017-09-18T00:28:24.810Z,4.15
2017-09-18T00:30:52.275Z,4.15
2017-09-18T00:33:19.903Z,4.10
2017-09-18T00:35:47.375Z,8.03
2017-09-18T00:38:14.848Z,4.32
2017-09-18T00:40:42.313Z,5.32
2017-09-18T00:43:09.869Z,5.12
2017-09-18T00:45:37.492Z,5.15
2017-09-18T00:48:04.965Z,3.78
2017-09-18T00:50:32.434Z,4.37
2017-09-18T00:52:59.921Z,3.30
2017-09-18T00:55:28.150Z,3.75
2017-09-18T00:57:55.695Z,4.10
2017-09-18T01:00:23.164Z,4.43
2017-09-18T01:02:50.655Z,3.50
2017-09-18T01:05:18.205Z,6.28
2017-09-18T01:07:45.678Z,7.47
2017-09-18T01:10:13.956Z,5.15
2017-09-18T01:12:42.194Z,3.17
2017-09-18T01:15:09.672Z,5.18
2017-09-18T01:17:37.144Z,4.12
2017-09-18T01:20:05.466Z,4.35
2017-09-18T01:22:32.920Z,4.07
2017-09-18T01:25:00.480Z,4.32
2017-09-18T01:27:28.040Z,3.67
2017-09-18T01:29:55.501Z,3.95
2017-09-18T01:32:23.055Z,6.63
2017-09-18T01:34:50.520Z,3.40
2017-09-18T01:37:17.995Z,4.25
2017-09-18T01:39:45.487Z,3.67
2017-09-18T01:42:13.713Z,4.75
2017-09-18T01:44:41.193Z,3.92
2017-09-18T01:47:08.657Z,4.07
2017-09-18T01:49:36.121Z,3.72
2017-09-18T01:52:04.361Z,6.40
2017-09-18T01:54:31.848Z,4.30
2017-09-18T01:56:59.312Z,5.82
2017-09-18T01:59:27.549Z,4.50
2017-09-18T02:01:55.024Z,4.18
2017-09-18T02:04:22.486Z,3.75
2017-09-18T02:06:49.960Z,3.85
2017-09-18T02:09:18.192Z,4.62
2017-09-18T02:11:46.065Z,6.03
2017-09-18T02:14:15.759Z,3.80
2017-09-18T02:16:44.699Z,4.72
2017-09-18T02:19:14.353Z,3.85
2017-09-18T02:21:41.958Z,3.80
2017-09-18T02:24:09.518Z,4.95
2017-09-18T02:26:37.027Z,4.30
2017-09-18T02:29:04.486Z,3.65
2017-09-18T02:31:32.048Z,5.00
2017-09-18T02:33:59.516Z,4.30
2017-09-18T02:36:26.990Z,4.65
2017-09-18T02:38:54.452Z,4.57
2017-09-18T02:41:21.925Z,4.20
2017-09-18T02:43:50.156Z,8.30
2017-09-18T02:46:17.644Z,5.10
2017-09-18T02:48:45.198Z,4.62
2017-09-18T02:51:12.761Z,3.78
2017-09-18T02:53:40.237Z,4.90
2017-09-18T02:56:08.469Z,3.92
2017-09-18T02:58:35.934Z,4.20
2017-09-18T03:01:03.413Z,4.45
2017-09-18T03:03:30.885Z,4.57
2017-09-18T03:05:59.114Z,6.25
2017-09-18T03:08:26.618Z,4.00
2017-09-18T03:10:54.853Z,4.18
2017-09-18T03:13:22.321Z,4.90
2017-09-18T03:15:49.790Z,4.37
2017-09-18T03:18:18.025Z,5.03
2017-09-18T03:20:45.501Z,4.55
2017-09-18T03:23:13.068Z,4.40
2017-09-18T03:25:41.345Z,5.10
2017-09-18T03:28:08.809Z,4.28
2017-09-18T03:30:36.293Z,4.62
2017-09-18T03:33:04.597Z,4.82
2017-09-18T03:35:32.065Z,5.32
2017-09-18T03:37:59.549Z,4.50
2017-09-18T03:40:27.016Z,5.60
2017-09-18T03:42:55.274Z,4.97
2017-09-18T03:45:22.735Z,5.12
2017-09-18T03:47:50.201Z,6.28
2017-09-18T03:50:17.669Z,4.70
2017-09-18T03:52:45.897Z,5.50
2017-09-18T03:55:13.369Z,4.80
2017-09-18T03:57:40.838Z,6.50
2017-09-18T04:00:08.301Z,8.35
2017-09-18T04:02:35.772Z,9.63
2017-09-18T04:05:04.032Z,6.18
2017-09-18T04:07:31.524Z,7.30
2017-09-18T04:09:58.985Z,5.78
2017-09-18T04:12:26.449Z,6.05
2017-09-18T04:14:53.915Z,5.68
2017-09-18T04:17:21.383Z,7.20
2017-09-18T04:19:49.695Z,5.75
2017-09-18T04:22:17.192Z,6.10
2017-09-18T04:24:44.707Z,6.65
2017-09-18T04:27:12.180Z,6.57
2017-09-18T04:29:40.413Z,11.88
2017-09-18T04:32:07.884Z,6.20
2017-09-18T04:34:35.336Z,9.05
2017-09-18T04:37:02.809Z,10.23
2017-09-18T04:39:30.275Z,8.82
2017-09-18T04:41:58.517Z,8.65
2017-09-18T04:44:26.009Z,10.95
2017-09-18T04:46:53.484Z,8.25
2017-09-18T04:49:21.718Z,10.15
2017-09-18T04:51:49.185Z,12.00
2017-09-18T04:54:16.655Z,10.05
2017-09-18T04:56:44.117Z,9.65
2017-09-18T04:59:12.357Z,8.32
2017-09-18T05:01:39.820Z,8.05
2017-09-18T05:04:07.290Z,9.02
2017-09-18T05:06:34.849Z,8.15
2017-09-18T05:09:02.348Z,15.27
2017-09-18T05:11:29.869Z,6.90
2017-09-18T05:13:57.328Z,8.38
2017-09-18T05:16:25.570Z,6.20
2017-09-18T05:18:53.033Z,8.15
2017-09-18T05:21:20.669Z,8.27
2017-09-18T05:23:48.166Z,10.80
2017-09-18T05:26:15.632Z,8.90
2017-09-18T05:28:43.088Z,9.43
2017-09-18T05:31:11.352Z,7.68
2017-09-18T05:33:38.810Z,8.23
2017-09-18T05:36:06.369Z,8.07
2017-09-18T05:38:33.933Z,8.85
2017-09-18T05:41:02.908Z,7.70
2017-09-18T05:43:30.385Z,11.30
2017-09-18T05:45:57.849Z,9.23
2017-09-18T05:48:26.093Z,7.30
2017-09-18T05:50:53.562Z,15.85
2017-09-18T05:53:21.128Z,8.55
2017-09-18T05:55:48.584Z,9.38
2017-09-18T05:58:16.138Z,6.80
2017-09-18T06:00:43.701Z,7.40
2017-09-18T06:03:11.181Z,11.18
2017-09-18T06:05:39.407Z,9.65
2017-09-18T06:08:06.889Z,6.87
2017-09-18T06:10:34.356Z,11.12
2017-09-18T06:13:02.597Z,9.48
2017-09-18T06:15:30.077Z,12.23
2017-09-18T06:17:57.633Z,6.70
2017-09-18T06:20:25.099Z,12.80
2017-09-18T06:22:52.561Z,8.57
2017-09-18T06:25:20.881Z,7.97
2017-09-18T06:27:48.362Z,13.45
2017-09-18T06:30:15.825Z,7.62
2017-09-18T06:32:43.315Z,12.65
2017-09-18T06:35:11.561Z,10.15
2017-09-18T06:37:39.020Z,8.05
2017-09-18T06:40:06.491Z,10.02
2017-09-18T06:42:33.954Z,11.77
2017-09-18T06:45:02.208Z,10.98
2017-09-18T06:47:29.664Z,11.07
2017-09-18T06:49:57.133Z,8.55
2017-09-18T06:52:24.596Z,10.20
2017-09-18T06:54:52.841Z,8.55
2017-09-18T06:57:20.417Z,9.15
2017-09-18T06:59:47.907Z,6.40
2017-09-18T07:02:15.433Z,6.78
2017-09-18T07:04:42.897Z,8.23
2017-09-18T07:07:10.356Z,8.00
2017-09-18T07:09:38.608Z,6.68
2017-09-18T07:12:06.185Z,7.05
2017-09-18T07:14:33.767Z,7.03
2017-09-18T07:17:02.001Z,7.20
2017-09-18T07:19:29.469Z,7.05
2017-09-18T07:21:57.025Z,8.38
2017-09-18T07:24:24.495Z,9.00
2017-09-18T07:26:52.724Z,5.90
2017-09-18T07:29:20.208Z,9.83
2017-09-18T07:31:47.677Z,7.68
2017-09-18T07:34:15.169Z,6.93
2017-09-18T07:36:42.693Z,5.87
2017-09-18T07:39:10.156Z,17.42
2017-09-18T07:41:38.582Z,5.35
2017-09-18T07:44:06.081Z,6.35
2017-09-18T07:46:33.740Z,6.60
2017-09-18T07:49:01.262Z,5.20
2017-09-18T07:51:28.807Z,6.75
2017-09-18T07:53:56.684Z,8.13
2017-09-18T07:56:24.346Z,7.68
2017-09-18T07:58:51.892Z,6.10
2017-09-18T08:01:19.397Z,9.30
2017-09-18T08:03:46.858Z,5.13
2017-09-18T08:06:15.092Z,6.60
2017-09-18T08:08:42.557Z,7.60
2017-09-18T08:11:10.025Z,9.33
2017-09-18T08:13:37.501Z,8.33
2017-09-18T08:16:04.965Z,6.50
2017-09-18T08:18:32.497Z,7.93
2017-09-18T08:20:59.966Z,6.00
2017-09-18T08:23:27.532Z,7.00
2017-09-18T08:25:54.998Z,7.10
2017-09-18T08:28:22.473Z,7.03
2017-09-18T08:30:50.739Z,6.47
2017-09-18T08:33:18.282Z,6.80
2017-09-18T08:35:45.755Z,8.27
2017-09-18T08:38:14.040Z,6.20
2017-09-18T08:40:42.359Z,7.73
2017-09-18T08:43:09.845Z,7.90
2017-09-18T08:45:37.301Z,9.53
2017-09-18T08:48:04.770Z,9.23
2017-09-18T08:50:32.224Z,7.70
2017-09-18T08:52:59.782Z,7.87
2017-09-18T08:55:27.333Z,5.93
2017-09-18T08:57:54.801Z,9.23
2017-09-18T09:00:22.409Z,8.40
2017-09-18T09:02:49.884Z,7.73
2017-09-18T09:05:17.354Z,7.13
2017-09-18T09:07:44.809Z,6.90
2017-09-18T09:10:12.286Z,6.13
2017-09-18T09:12:39.748Z,5.93
2017-09-18T09:15:07.217Z,7.43
2017-09-18T09:17:35.442Z,4.27
2017-09-18T09:20:02.917Z,9.07
2017-09-18T09:22:30.387Z,6.57
2017-09-18T09:24:57.943Z,4.77
2017-09-18T09:27:25.410Z,4.23
2017-09-18T09:29:53.641Z,3.93
2017-09-18T09:32:21.101Z,4.53
2017-09-18T09:34:48.586Z,3.33
2017-09-18T09:37:16.154Z,4.10
2017-09-18T09:39:43.703Z,3.03
2017-09-18T09:42:11.180Z,4.53
2017-09-18T09:44:39.409Z,3.70
2017-09-18T09:47:06.891Z,3.43
2017-09-18T09:49:34.445Z,2.83
2017-09-18T09:52:01.905Z,2.70
2017-09-18T09:54:29.468Z,3.63
2017-09-18T09:56:58.277Z,3.33
2017-09-18T09:59:26.515Z,3.73
2017-09-18T10:01:53.964Z,3.80
2017-09-18T10:04:21.421Z,2.60
2017-09-18T10:06:48.896Z,2.73
2017-09-18T10:09:16.349Z,3.13
2017-09-18T10:11:43.867Z,2.40
2017-09-18T10:14:11.329Z,6.00
2017-09-18T10:16:38.817Z,3.17
2017-09-18T10:19:06.379Z,5.20
2017-09-18T10:21:33.939Z,2.63
2017-09-18T10:24:02.907Z,3.63
2017-09-18T10:26:30.380Z,2.67
2017-09-18T10:28:57.950Z,1.63
2017-09-18T10:31:25.501Z,1.93
2017-09-18T10:33:52.956Z,3.10
2017-09-18T10:36:20.424Z,1.43
2017-09-18T10:38:48.650Z,3.73
2017-09-18T10:41:16.119Z,1.73
2017-09-18T10:43:43.619Z,2.20
2017-09-18T10:46:11.855Z,1.43
2017-09-18T10:48:39.354Z,2.90
2017-09-18T10:51:07.598Z,1.73
2017-09-18T10:53:35.093Z,1.97
2017-09-18T10:56:03.405Z,6.23
2017-09-18T10:58:30.874Z,3.03
2017-09-18T11:00:58.356Z,2.83
2017-09-18T11:03:25.823Z,2.53
2017-09-18T11:05:53.395Z,3.03
2017-09-18T11:08:20.851Z,3.50
2017-09-18T11:10:49.109Z,5.17
2017-09-18T11:13:16.565Z,2.30
2017-09-18T11:15:44.039Z,2.33
2017-09-18T11:18:11.588Z,2.33
2017-09-18T11:20:39.199Z,2.57
2017-09-18T11:23:06.714Z,4.57
2017-09-18T11:25:34.267Z,1.87
2017-09-18T11:28:02.548Z,3.10
2017-09-18T11:30:30.005Z,2.47
2017-09-18T11:32:57.473Z,1.23
2017-09-18T11:35:25.718Z,1.30
2017-09-18T11:37:53.992Z,1.43
2017-09-18T11:40:21.457Z,1.20
2017-09-18T11:42:49.074Z,1.40
2017-09-18T11:45:16.568Z,1.27
2017-09-18T11:47:44.172Z,0.93
2017-09-18T11:50:12.410Z,2.00
2017-09-18T11:52:40.642Z,2.40
2017-09-18T11:55:08.096Z,1.00
2017-09-18T11:57:35.564Z,1.20
2017-09-18T12:00:03.021Z,1.73
2017-09-18T12:02:30.558Z,0.80
2017-09-18T12:04:58.066Z,0.87
2017-09-18T12:07:25.616Z,1.53
2017-09-18T12:09:53.187Z,2.00
2017-09-18T12:12:20.660Z,1.63
2017-09-18T12:14:48.913Z,3.50
2017-09-18T12:17:16.473Z,1.37
2017-09-18T12:19:43.937Z,1.10
2017-09-18T12:22:11.416Z,1.73
2017-09-18T12:24:39.659Z,0.83
2017-09-18T12:27:07.110Z,0.83
2017-09-18T12:29:34.634Z,1.57
2017-09-18T12:32:02.080Z,1.10
2017-09-18T12:34:29.612Z,1.30
2017-09-18T12:36:57.845Z,1.00
2017-09-18T12:39:25.314Z,3.73
2017-09-18T12:41:52.843Z,1.00
2017-09-18T12:44:20.327Z,2.60
2017-09-18T12:46:47.781Z,1.53
2017-09-18T12:49:15.261Z,1.33
2017-09-18T12:51:42.706Z,2.10
2017-09-18T12:54:10.265Z,1.30
2017-09-18T12:56:37.733Z,1.07
2017-09-18T12:59:05.280Z,1.23
2017-09-18T13:01:32.741Z,1.37
2017-09-18T13:04:00.193Z,1.83
2017-09-18T13:06:27.753Z,1.07
2017-09-18T13:08:55.221Z,2.27
2017-09-18T13:11:22.679Z,1.40
2017-09-18T13:13:50.137Z,2.37
2017-09-18T13:16:17.589Z,1.40
2017-09-18T13:18:45.058Z,2.70
2017-09-18T13:21:13.310Z,1.27
2017-09-18T13:23:41.554Z,1.03
2017-09-18T13:26:09.037Z,1.20
2017-09-18T13:28:38.004Z,3.30
2017-09-18T13:31:05.469Z,2.10
2017-09-18T13:33:32.928Z,3.53
2017-09-18T13:36:00.409Z,1.90
2017-09-18T13:38:27.968Z,1.37
2017-09-18T13:40:55.430Z,1.70
2017-09-18T13:43:22.892Z,2.77
2017-09-18T13:45:50.435Z,1.00
2017-09-18T13:48:17.897Z,2.00
2017-09-18T13:50:45.449Z,2.87
2017-09-18T13:53:12.913Z,1.53
2017-09-18T13:55:40.430Z,0.97
2017-09-18T13:58:07.903Z,2.40
2017-09-18T14:00:35.385Z,1.03
2017-09-18T14:03:02.832Z,1.33
2017-09-18T14:05:31.053Z,1.20
2017-09-18T14:07:58.517Z,3.13
2017-09-18T14:10:25.969Z,1.73
2017-09-18T14:12:53.451Z,1.80
2017-09-18T14:15:20.931Z,1.97
2017-09-18T14:17:48.386Z,1.30
2017-09-18T14:20:16.667Z,1.00
2017-09-18T14:22:44.228Z,1.33
2017-09-18T14:25:11.796Z,1.50
2017-09-18T14:27:39.277Z,1.13
2017-09-18T14:30:07.493Z,1.80
2017-09-18T14:32:34.957Z,1.97
2017-09-18T14:35:02.445Z,1.23
2017-09-18T14:37:30.704Z,0.97
2017-09-18T14:39:58.196Z,1.87
2017-09-18T14:42:26.436Z,2.10
2017-09-18T14:44:53.900Z,1.27
2017-09-18T14:47:21.459Z,6.87
2017-09-18T14:49:48.913Z,3.20
2017-09-18T14:52:16.392Z,1.10
2017-09-18T14:54:44.624Z,1.30
2017-09-18T14:57:12.161Z,4.00
2017-09-18T14:59:39.625Z,3.83
2017-09-18T15:02:07.094Z,2.57
2017-09-18T15:04:34.564Z,1.87
2017-09-18T15:07:02.118Z,1.50
2017-09-18T15:09:29.625Z,2.30
2017-09-18T15:11:57.108Z,1.10
2017-09-18T15:14:24.596Z,2.80
2017-09-18T15:16:52.152Z,1.50
2017-09-18T15:19:19.737Z,3.40
2017-09-18T15:21:47.203Z,1.27
2017-09-18T15:24:15.428Z,1.47
2017-09-18T15:26:42.904Z,3.80
2017-09-18T15:29:10.362Z,1.23
2017-09-18T15:31:37.914Z,1.40
2017-09-18T15:34:05.378Z,1.93
2017-09-18T15:36:32.833Z,1.23
2017-09-18T15:39:00.462Z,1.37
2017-09-18T15:41:27.950Z,1.30
2017-09-18T15:43:55.410Z,4.03
2017-09-18T15:46:22.965Z,2.90
2017-09-18T15:48:50.521Z,3.43
2017-09-18T15:51:17.983Z,2.10
2017-09-18T15:53:45.538Z,1.40
2017-09-18T15:56:13.001Z,1.63
2017-09-18T15:58:40.489Z,1.20
2017-09-18T16:01:08.732Z,1.50
2017-09-18T16:03:36.219Z,0.97
2017-09-18T16:06:04.453Z,2.20
2017-09-18T16:08:31.931Z,2.80
2017-09-18T16:10:59.533Z,1.20
2017-09-18T16:13:26.989Z,1.43
2017-09-18T16:15:54.457Z,1.77
2017-09-18T16:18:21.956Z,1.57
2017-09-18T16:20:49.459Z,4.33
2017-09-18T16:23:16.927Z,1.00
2017-09-18T16:25:44.480Z,3.13
2017-09-18T16:28:11.986Z,1.20
2017-09-18T16:30:39.541Z,2.70
2017-09-18T16:33:07.763Z,1.63
2017-09-18T16:35:35.233Z,1.27
2017-09-18T16:38:02.680Z,1.20
2017-09-18T16:40:30.186Z,1.73
2017-09-18T16:42:57.629Z,1.10
2017-09-18T16:45:25.207Z,1.20
2017-09-18T16:47:52.777Z,1.23
2017-09-18T16:50:21.020Z,1.20
2017-09-18T16:52:48.494Z,1.40
2017-09-18T16:55:15.953Z,2.00
2017-09-18T16:57:43.410Z,1.20
2017-09-18T17:00:10.948Z,4.67
2017-09-18T17:02:38.444Z,4.20
2017-09-18T17:05:06.697Z,1.93
2017-09-18T17:07:34.259Z,3.93
2017-09-18T17:10:01.730Z,8.00
2017-09-18T17:12:29.948Z,1.73
2017-09-18T17:14:57.409Z,3.60
2017-09-18T17:17:24.871Z,3.40
2017-09-18T17:19:52.340Z,1.63
2017-09-18T17:22:19.909Z,1.97
2017-09-18T17:24:47.371Z,1.90
2017-09-18T17:27:14.837Z,3.53
2017-09-18T17:29:42.305Z,1.60
2017-09-18T17:32:10.601Z,2.83
2017-09-18T17:34:38.128Z,3.17
2017-09-18T17:37:06.397Z,2.23
2017-09-18T17:39:35.378Z,5.13
2017-09-18T17:42:04.451Z,3.70
2017-09-18T17:44:32.504Z,2.70
2017-09-18T17:47:00.038Z,4.60
2017-09-18T17:49:27.497Z,4.17
2017-09-18T17:51:55.017Z,4.77
2017-09-18T17:54:22.484Z,5.73
2017-09-18T17:56:50.717Z,4.70
2017-09-18T17:59:18.190Z,4.63
2017-09-18T18:01:45.653Z,3.00
2017-09-18T18:04:13.132Z,3.23
2017-09-18T18:06:40.663Z,5.27
2017-09-18T18:09:08.154Z,5.20
2017-09-18T18:11:36.377Z,7.93
2017-09-18T18:14:03.853Z,6.03
2017-09-18T18:16:32.888Z,4.43
2017-09-18T18:19:01.114Z,3.53
2017-09-18T18:21:28.600Z,5.90
2017-09-18T18:23:56.105Z,3.83
2017-09-18T18:26:23.562Z,2.93
2017-09-18T18:28:51.054Z,3.10
2017-09-18T18:31:18.520Z,4.20
2017-09-18T18:33:45.985Z,6.83
2017-09-18T18:36:14.308Z,8.27
2017-09-18T18:38:41.793Z,7.10
2017-09-18T18:41:09.282Z,6.83
2017-09-18T18:43:37.519Z,5.17
2017-09-18T18:46:05.006Z,6.57
2017-09-18T18:48:32.569Z,8.20
2017-09-18T18:51:00.889Z,4.47
2017-09-18T18:53:28.681Z,10.60
2017-09-18T18:55:56.149Z,6.77
2017-09-18T18:58:23.632Z,5.20
2017-09-18T19:00:51.876Z,5.60
2017-09-18T19:03:19.484Z,8.43
2017-09-18T19:05:47.006Z,4.90
2017-09-18T19:08:14.567Z,7.00
2017-09-18T19:10:42.054Z,5.20
2017-09-18T19:13:09.523Z,5.80
2017-09-18T19:15:37.034Z,5.47
2017-09-18T19:18:05.874Z,5.43
2017-09-18T19:20:33.498Z,5.70
2017-09-18T19:23:00.971Z,6.20
2017-09-18T19:25:29.221Z,5.83
2017-09-18T19:27:56.693Z,6.73
2017-09-18T19:30:24.917Z,7.30
2017-09-18T19:32:52.402Z,6.90
2017-09-18T19:35:19.860Z,9.03
2017-09-18T19:37:47.328Z,16.20
2017-09-18T19:40:15.574Z,14.40
2017-09-18T19:42:43.043Z,9.07
2017-09-18T19:45:10.505Z,13.40
2017-09-18T19:47:37.968Z,10.83
2017-09-18T19:50:08.433Z,10.90
2017-09-18T19:52:35.930Z,11.60
2017-09-18T19:55:03.389Z,12.20
2017-09-18T19:57:30.869Z,10.53
2017-09-18T19:59:58.338Z,8.50
2017-09-18T20:02:26.580Z,11.50
2017-09-18T20:04:54.152Z,10.60
2017-09-18T20:07:21.652Z,11.70
2017-09-18T20:09:49.105Z,14.73
2017-09-18T20:12:16.576Z,11.87
2017-09-18T20:14:44.054Z,9.07
2017-09-18T20:17:11.535Z,11.30
2017-09-18T20:19:39.129Z,10.93
2017-09-18T20:22:06.586Z,11.77
2017-09-18T20:24:34.063Z,9.33
2017-09-18T20:27:01.569Z,11.90
2017-09-18T20:29:29.125Z,11.53
2017-09-18T20:31:56.589Z,9.00
2017-09-18T20:34:24.237Z,9.03
2017-09-18T20:36:51.702Z,7.77
2017-09-18T20:39:19.187Z,9.87
2017-09-18T20:41:46.645Z,10.97
2017-09-18T20:44:14.106Z,10.00
2017-09-18T20:46:41.575Z,23.53
2017-09-18T20:49:09.129Z,15.33
2017-09-18T20:51:36.594Z,12.80
2017-09-18T20:54:04.079Z,11.17
2017-09-18T20:56:31.547Z,12.07
2017-09-18T20:58:59.067Z,13.53
2017-09-18T21:01:26.618Z,11.53
2017-09-18T21:03:54.086Z,13.73
2017-09-18T21:06:21.560Z,8.90
2017-09-18T21:08:49.096Z,11.13
2017-09-18T21:11:16.596Z,15.13
2017-09-18T21:13:44.096Z,10.50
2017-09-18T21:16:11.566Z,11.27
2017-09-18T21:18:39.029Z,11.80
2017-09-18T21:21:06.496Z,11.03
2017-09-18T21:23:34.042Z,13.87
2017-09-18T21:26:01.518Z,15.10
2017-09-18T21:28:28.990Z,13.90
2017-09-18T21:30:56.553Z,13.13
2017-09-18T21:33:24.065Z,12.63
2017-09-18T21:35:51.528Z,17.20
2017-09-18T21:38:19.002Z,13.50
2017-09-18T21:40:46.482Z,12.77
2017-09-18T21:43:14.048Z,11.90
2017-09-18T21:45:41.513Z,11.33
2017-09-18T21:48:09.754Z,13.43
2017-09-18T21:50:37.337Z,14.23
2017-09-18T21:53:04.889Z,15.47
2017-09-18T21:55:32.359Z,12.63
2017-09-18T21:57:59.822Z,12.53
2017-09-18T22:00:28.057Z,10.80
2017-09-18T22:02:55.529Z,11.60
2017-09-18T22:05:23.097Z,12.67
2017-09-18T22:07:50.575Z,11.80
2017-09-18T22:10:18.828Z,12.40
2017-09-18T22:12:46.388Z,14.77
2017-09-18T22:15:13.851Z,12.20
2017-09-18T22:17:41.304Z,10.80
2017-09-18T22:20:08.797Z,10.40
2017-09-18T22:22:36.273Z,11.37
2017-09-18T22:25:03.760Z,10.70
2017-09-18T22:27:31.241Z,12.50
2017-09-18T22:29:58.704Z,9.70
2017-09-18T22:32:26.982Z,10.40
2017-09-18T22:34:55.227Z,10.10
2017-09-18T22:37:22.715Z,11.40
2017-09-18T22:39:50.960Z,10.80
2017-09-18T22:42:18.530Z,10.67
2017-09-18T22:44:46.141Z,9.50
2017-09-18T22:47:13.617Z,9.57
2017-09-18T22:49:41.084Z,10.05
2017-09-18T22:52:08.672Z,11.88
2017-09-18T22:54:36.925Z,11.20
2017-09-18T22:57:04.393Z,11.17
2017-09-18T22:59:32.640Z,10.75
2017-09-18T23:02:00.118Z,8.13
2017-09-18T23:04:27.580Z,9.45
2017-09-18T23:06:55.045Z,9.93
2017-09-18T23:09:23.296Z,10.43
2017-09-18T23:11:50.774Z,10.45
2017-09-18T23:14:19.022Z,11.10
2017-09-18T23:16:46.502Z,11.88
2017-09-18T23:19:14.011Z,11.10
2017-09-18T23:21:41.489Z,10.73
2017-09-18T23:24:08.967Z,10.38
2017-09-18T23:26:36.440Z,12.73
2017-09-18T23:31:38.696Z,10.23
2017-09-18T23:34:06.232Z,11.50
2017-09-18T23:36:33.692Z,10.57
2017-09-18T23:39:01.169Z,9.70
2017-09-18T23:41:28.738Z,11.15
2017-09-18T23:43:56.209Z,12.15
2017-09-18T23:46:24.445Z,8.43
2017-09-18T23:48:51.939Z,15.23
2017-09-18T23:51:19.405Z,10.90
2017-09-18T23:53:47.652Z,13.68
2017-09-18T23:56:15.121Z,11.73
2017-09-18T23:58:42.673Z,11.00
